createdAt,value
2023-02-13T00:04:01.120Z,102287.94
2023-02-13T00:09:06.405Z,102295.78
2023-02-13T00:14:10.348Z,102295.03
2023-02-13T00:19:13.327Z,102290.72
2023-02-13T00:24:16.368Z,102300.38
2023-02-13T00:29:19.433Z,102303.94
2023-02-13T00:34:22.173Z,102300.56
2023-02-13T00:39:25.029Z,102307.50
2023-02-13T00:44:28.045Z,102296.34
2023-02-13T00:49:31.019Z,102279.91
2023-02-13T00:54:33.913Z,102287.72
2023-02-13T00:59:36.918Z,102287.72
2023-02-13T01:04:39.818Z,102289.34
2023-02-13T01:09:42.892Z,102280.75
2023-02-13T01:14:45.719Z,102276.31
2023-02-13T01:19:48.734Z,102275.44
2023-02-13T01:24:51.727Z,102271.09
2023-02-13T01:29:55.214Z,102271.16
2023-02-13T01:34:58.035Z,102266.06
2023-02-13T01:40:01.140Z,102267.88
2023-02-13T01:45:27.804Z,102268.91
2023-02-13T01:50:45.282Z,102265.50
2023-02-13T01:55:56.373Z,102267.28
2023-02-13T02:01:01.073Z,102263.97
2023-02-13T02:06:08.183Z,102268.38
2023-02-13T02:11:22.916Z,102266.78
2023-02-13T02:16:26.412Z,102264.25
2023-02-13T02:21:58.495Z,102265.13
2023-02-13T02:27:41.698Z,102264.13
2023-02-13T02:33:27.823Z,102275.38
2023-02-13T02:38:39.494Z,102262.44
2023-02-13T02:43:55.539Z,102252.03
2023-02-13T02:49:35.491Z,102261.66
2023-02-13T02:55:09.503Z,102256.63
2023-02-13T03:00:32.303Z,102261.13
2023-02-13T03:05:59.034Z,102259.53
2023-02-13T03:11:20.899Z,102262.19
2023-02-13T03:16:44.328Z,102261.38
2023-02-13T03:22:17.835Z,102263.97
2023-02-13T03:28:17.262Z,102266.63
2023-02-13T03:34:05.078Z,102267.56
2023-02-13T03:39:47.466Z,102261.44
2023-02-13T03:45:21.888Z,102257.97
2023-02-13T03:50:27.507Z,102258.84
2023-02-13T03:55:55.826Z,102246.81
2023-02-13T04:01:03.213Z,102252.13
2023-02-13T04:06:20.444Z,102262.56
2023-02-13T04:11:39.783Z,102262.63
2023-02-13T04:17:11.683Z,102260.13
2023-02-13T04:22:15.667Z,102250.72
2023-02-13T04:27:18.905Z,102248.16
2023-02-13T04:32:21.649Z,102239.44
2023-02-13T04:37:24.697Z,102240.31
2023-02-13T04:42:27.648Z,102238.63
2023-02-13T04:47:30.631Z,102240.41
2023-02-13T04:52:33.673Z,102231.84
2023-02-13T04:57:36.675Z,102232.78
2023-02-13T05:02:39.772Z,102231.97
2023-02-13T05:07:43.159Z,102220.78
2023-02-13T05:12:47.649Z,102213.88
2023-02-13T05:17:51.251Z,102214.75
2023-02-13T05:23:13.377Z,102219.06
2023-02-13T05:28:35.375Z,102220.72
2023-02-13T05:33:38.638Z,102213.88
2023-02-13T05:38:41.644Z,102213.88
2023-02-13T05:43:44.687Z,102219.03
2023-02-13T05:48:47.725Z,102227.66
2023-02-13T05:53:51.055Z,102245.81
2023-02-13T05:58:55.938Z,102249.25
2023-02-13T06:04:00.960Z,102256.13
2023-02-13T06:09:05.912Z,102261.22
2023-02-13T06:14:08.974Z,102259.31
2023-02-13T06:19:11.972Z,102260.91
2023-02-13T06:24:15.069Z,102262.56
2023-02-13T06:29:18.121Z,102268.53
2023-02-13T06:34:20.857Z,102265.84
2023-02-13T06:39:23.848Z,102273.47
2023-02-13T06:44:26.924Z,102275.88
2023-02-13T06:49:29.829Z,102281.66
2023-02-13T06:54:46.405Z,102266.72
2023-02-13T06:59:50.508Z,102269.94
2023-02-13T07:04:53.419Z,102282.63
2023-02-13T07:09:56.418Z,102273.59
2023-02-13T07:15:00.032Z,102273.19
2023-02-13T07:20:05.108Z,102273.59
2023-02-13T07:25:08.724Z,102276.59
2023-02-13T07:30:12.365Z,102263.63
2023-02-13T07:35:15.394Z,102269.78
2023-02-13T07:40:18.677Z,102266.63
2023-02-13T07:45:21.662Z,102270.97
2023-02-13T07:50:24.881Z,102274.78
2023-02-13T07:55:31.446Z,102273.63
2023-02-13T08:00:34.400Z,102257.88
2023-02-13T08:05:38.846Z,102252.50
2023-02-13T08:11:00.169Z,102244.75
2023-02-13T08:16:03.590Z,102245.53
2023-02-13T08:21:06.655Z,102241.72
2023-02-13T08:26:09.657Z,102242.63
2023-02-13T08:31:13.626Z,102247.81
2023-02-13T08:36:17.123Z,102243.47
2023-02-13T08:41:22.183Z,102250.94
2023-02-13T08:46:25.336Z,102238.00
2023-02-13T08:51:28.377Z,102238.19
2023-02-13T08:56:31.335Z,102237.25
2023-02-13T09:01:34.453Z,102239.09
2023-02-13T09:06:37.489Z,102240.53
2023-02-13T09:11:40.206Z,102236.34
2023-02-13T09:16:43.322Z,102232.03
2023-02-13T09:21:46.319Z,102231.78
2023-02-13T09:26:49.244Z,102217.72
2023-02-13T09:31:52.853Z,102214.06
2023-02-13T09:36:56.052Z,102213.38
2023-02-13T09:42:00.948Z,102206.91
2023-02-13T09:47:25.726Z,102210.59
2023-02-13T09:52:37.211Z,102213.72
2023-02-13T09:57:56.769Z,102204.38
2023-02-13T10:02:59.703Z,102202.16
2023-02-13T10:08:36.729Z,102183.00
2023-02-13T10:14:00.762Z,102189.06
2023-02-13T10:19:34.361Z,102171.13
2023-02-13T10:24:47.244Z,102168.16
2023-02-13T10:30:28.130Z,102163.94
2023-02-13T10:35:32.333Z,102158.41
2023-02-13T10:40:43.068Z,102148.81
2023-02-13T10:45:57.330Z,102142.47
2023-02-13T10:51:25.926Z,102137.25
2023-02-13T10:57:22.515Z,102118.13
2023-02-13T11:02:29.316Z,102120.06
2023-02-13T11:07:32.721Z,102110.88
2023-02-13T11:12:35.805Z,102099.38
2023-02-13T11:17:44.169Z,102097.66
2023-02-13T11:22:47.498Z,102089.84
2023-02-13T11:27:56.180Z,102085.63
2023-02-13T11:33:04.236Z,102075.78
2023-02-13T11:38:16.515Z,102072.88
2023-02-13T11:43:47.976Z,102058.06
2023-02-13T11:49:06.679Z,102053.56
2023-02-13T11:54:42.150Z,102053.41
2023-02-13T11:59:47.745Z,102048.72
2023-02-13T12:05:13.302Z,102042.47
2023-02-13T12:10:26.539Z,102048.44
2023-02-13T12:15:33.824Z,102039.78
2023-02-13T12:21:18.237Z,102039.19
2023-02-13T12:26:33.384Z,102035.31
2023-02-13T12:32:09.660Z,102028.91
2023-02-13T12:37:15.645Z,102009.44
2023-02-13T12:42:58.092Z,102008.03
2023-02-13T12:48:28.456Z,101991.50
2023-02-13T12:53:58.310Z,101979.22
2023-02-13T12:59:30.128Z,101986.78
2023-02-13T13:05:27.492Z,101984.84
2023-02-13T13:11:03.630Z,101976.81
2023-02-13T13:16:09.412Z,101977.44
2023-02-13T13:21:50.072Z,101978.31
2023-02-13T13:26:57.318Z,101978.00
2023-02-13T13:32:08.725Z,101983.94
2023-02-13T13:37:31.580Z,101976.66
2023-02-13T13:42:40.708Z,101972.63
2023-02-13T13:48:01.920Z,101979.50
2023-02-13T13:53:21.053Z,101969.75
2023-02-13T13:58:43.271Z,101971.56
2023-02-13T14:03:53.256Z,101980.22
2023-02-13T14:09:04.137Z,101983.25
2023-02-13T14:14:29.069Z,101984.44
2023-02-13T14:19:40.449Z,101987.88
2023-02-13T14:24:49.303Z,101999.69
2023-02-13T14:29:52.685Z,102000.38
2023-02-13T14:35:16.812Z,101997.56
2023-02-13T14:40:49.386Z,101994.00
2023-02-13T14:46:02.105Z,102002.41
2023-02-13T14:51:06.177Z,101994.94
2023-02-13T14:56:15.593Z,101993.16
2023-02-13T15:01:32.392Z,101991.19
2023-02-13T15:06:41.907Z,101991.84
2023-02-13T15:11:45.311Z,101989.78
2023-02-13T15:16:57.907Z,101996.91
2023-02-13T15:22:04.597Z,102007.59
2023-02-13T15:27:16.528Z,102007.69
2023-02-13T15:32:26.424Z,102004.34
2023-02-13T15:37:31.168Z,101997.66
2023-02-13T15:42:34.495Z,101991.00
2023-02-13T15:47:37.685Z,101971.94
2023-02-13T15:52:40.729Z,101983.00
2023-02-13T15:57:43.915Z,101990.31
2023-02-13T16:02:48.741Z,101982.28
2023-02-13T16:07:58.931Z,101999.06
2023-02-13T16:13:07.592Z,101998.22
2023-02-13T16:18:20.648Z,101999.38
2023-02-13T16:23:23.711Z,101998.34
2023-02-13T16:28:31.878Z,101982.13
2023-02-13T16:33:39.315Z,101976.41
2023-02-13T16:38:45.310Z,101976.75
2023-02-13T16:43:56.137Z,101978.78
2023-02-13T16:49:01.742Z,101981.50
2023-02-13T16:54:10.748Z,101982.91
2023-02-13T16:59:47.957Z,101991.19
2023-02-13T17:05:14.702Z,101973.13
2023-02-13T17:10:36.484Z,101967.25
2023-02-13T17:15:46.508Z,101968.34
2023-02-13T17:20:49.826Z,101968.91
2023-02-13T17:25:54.175Z,101959.69
2023-02-13T17:30:59.886Z,101953.44
2023-02-13T17:36:03.489Z,101945.66
2023-02-13T17:41:14.888Z,101941.47
2023-02-13T17:46:18.086Z,101938.75
2023-02-13T17:51:21.319Z,101926.22
2023-02-13T17:56:24.242Z,101922.53
2023-02-13T18:01:29.352Z,101932.03
2023-02-13T18:06:32.278Z,101925.22
2023-02-13T18:11:35.356Z,101919.44
2023-02-13T18:16:38.415Z,101915.19
2023-02-13T18:21:42.137Z,101912.72
2023-02-13T18:26:45.194Z,101915.66
2023-02-13T18:31:48.490Z,101900.81
2023-02-13T18:36:51.514Z,101907.19
2023-02-13T18:41:54.508Z,101894.94
2023-02-13T18:46:58.251Z,101881.81
2023-02-13T18:52:02.347Z,101887.47
2023-02-13T18:57:06.196Z,101886.94
2023-02-13T19:02:10.334Z,101884.63
2023-02-13T19:07:13.925Z,101878.84
2023-02-13T19:12:16.998Z,101881.28
2023-02-13T19:17:20.177Z,101899.94
2023-02-13T19:22:23.037Z,101897.31
2023-02-13T19:27:26.143Z,101893.13
2023-02-13T19:32:29.059Z,101882.84
2023-02-13T19:37:43.054Z,101888.41
2023-02-13T19:42:48.298Z,101884.00
2023-02-13T19:47:51.409Z,101890.09
2023-02-13T19:52:54.531Z,101871.06
2023-02-13T19:57:57.725Z,101866.09
2023-02-13T20:03:04.820Z,101872.03
2023-02-13T20:08:07.829Z,101867.72
2023-02-13T20:13:10.770Z,101865.94
2023-02-13T20:18:13.792Z,101858.06
2023-02-13T20:23:18.573Z,101854.56
2023-02-13T20:28:21.569Z,101851.53
2023-02-13T20:33:24.557Z,101865.47
2023-02-13T20:38:27.631Z,101859.19
2023-02-13T20:43:32.782Z,101865.25
2023-02-13T20:48:37.357Z,101863.56
2023-02-13T20:53:42.519Z,101858.78
2023-02-13T20:58:48.614Z,101871.06
2023-02-13T21:03:56.314Z,101873.41
2023-02-13T21:08:59.432Z,101870.22
2023-02-13T21:14:02.986Z,101863.63
2023-02-13T21:19:19.317Z,101877.81
2023-02-13T21:24:23.591Z,101885.50
2023-02-13T21:29:26.685Z,101879.00
2023-02-13T21:34:29.777Z,101884.66
2023-02-13T21:39:32.786Z,101875.69
2023-02-13T21:44:36.030Z,101892.31
2023-02-13T21:49:39.067Z,101890.81
2023-02-13T21:54:42.080Z,101898.38
2023-02-13T21:59:45.009Z,101903.19
2023-02-13T22:04:48.017Z,101902.22
2023-02-13T22:09:51.167Z,101906.47
2023-02-13T22:14:55.223Z,101899.22
2023-02-13T22:19:58.160Z,101898.81
2023-02-13T22:25:01.664Z,101890.31
2023-02-13T22:30:06.813Z,101880.91
2023-02-13T22:35:10.012Z,101877.44
2023-02-13T22:40:13.250Z,101874.34
2023-02-13T22:45:16.410Z,101871.56
2023-02-13T22:50:19.867Z,101868.84
2023-02-13T22:55:22.708Z,101871.00
2023-02-13T23:00:27.000Z,101872.56
2023-02-13T23:05:29.925Z,101867.22
2023-02-13T23:10:32.926Z,101870.97
2023-02-13T23:15:36.761Z,101874.69
2023-02-13T23:20:44.171Z,101860.88
2023-02-13T23:25:47.078Z,101838.00
2023-02-13T23:30:50.151Z,101825.22
2023-02-13T23:35:53.352Z,101825.56
2023-02-13T23:40:56.584Z,101823.63
2023-02-13T23:45:59.410Z,101818.38
2023-02-13T23:51:02.719Z,101816.69
2023-02-13T23:56:06.434Z,101822.03
